createdAt,value
2023-09-08T00:02:11.638Z,87.21
2023-09-08T00:04:38.126Z,86.82
2023-09-08T00:07:05.280Z,86.69
2023-09-08T00:09:31.792Z,86.47
2023-09-08T00:11:58.307Z,86.81
2023-09-08T00:14:24.694Z,88.16
2023-09-08T00:16:55.320Z,88.22
2023-09-08T00:19:22.495Z,87.85
2023-09-08T00:21:48.860Z,88.49
2023-09-08T00:24:15.282Z,89.60
2023-09-08T00:26:41.807Z,89.52
2023-09-08T00:29:08.796Z,90.26
2023-09-08T00:31:35.274Z,90.05
2023-09-08T00:34:01.866Z,90.11
2023-09-08T00:36:28.369Z,89.47
2023-09-08T00:38:54.778Z,90.08
2023-09-08T00:41:21.413Z,90.36
2023-09-08T00:43:47.888Z,90.61
2023-09-08T00:46:14.464Z,90.21
2023-09-08T00:48:41.063Z,90.44
2023-09-08T00:51:08.974Z,90.19
2023-09-08T00:53:35.534Z,90.17
2023-09-08T00:56:02.089Z,89.40
2023-09-08T00:58:29.134Z,89.56
2023-09-08T01:00:55.521Z,89.43
2023-09-08T01:03:22.006Z,89.43
2023-09-08T01:05:49.418Z,89.56
2023-09-08T01:08:16.628Z,89.73
2023-09-08T01:10:43.283Z,89.93
2023-09-08T01:13:10.350Z,89.84
2023-09-08T01:15:36.862Z,89.40
2023-09-08T01:18:03.573Z,90.13
2023-09-08T01:21:00.651Z,90.75
2023-09-08T01:23:53.233Z,91.31
2023-09-08T01:26:22.201Z,90.74
2023-09-08T01:28:51.321Z,90.75
2023-09-08T01:31:19.045Z,91.07
2023-09-08T01:33:46.577Z,91.22
2023-09-08T01:36:13.964Z,91.10
2023-09-08T01:38:40.586Z,91.15
2023-09-08T01:41:07.056Z,91.13
2023-09-08T01:43:33.589Z,90.96
2023-09-08T01:46:00.010Z,90.62
2023-09-08T01:48:26.442Z,91.19
2023-09-08T01:50:52.887Z,91.21
2023-09-08T01:53:19.232Z,91.14
2023-09-08T01:55:46.435Z,91.55
2023-09-08T01:58:12.861Z,91.30
2023-09-08T02:00:39.249Z,91.21
2023-09-08T02:03:05.713Z,91.22
2023-09-08T02:05:32.288Z,90.32
2023-09-08T02:07:58.820Z,90.66
2023-09-08T02:10:25.215Z,91.06
2023-09-08T02:12:51.638Z,91.11
2023-09-08T02:15:18.506Z,91.00
2023-09-08T02:17:44.978Z,90.99
2023-09-08T02:20:11.848Z,91.38
2023-09-08T02:22:38.215Z,91.57
2023-09-08T02:25:05.507Z,91.21
2023-09-08T02:27:31.929Z,91.56
2023-09-08T02:29:58.322Z,91.48
2023-09-08T02:32:24.696Z,91.49
2023-09-08T02:34:51.433Z,91.72
2023-09-08T02:37:20.020Z,91.79
2023-09-08T02:39:46.502Z,91.26
2023-09-08T02:42:12.928Z,91.52
2023-09-08T02:44:39.286Z,91.71
2023-09-08T02:47:07.491Z,91.64
2023-09-08T02:49:33.990Z,91.70
2023-09-08T02:52:00.516Z,91.77
2023-09-08T02:54:26.939Z,91.12
2023-09-08T02:56:53.356Z,91.42
2023-09-08T02:59:19.820Z,91.67
2023-09-08T03:01:46.826Z,92.12
2023-09-08T03:04:13.375Z,92.52
2023-09-08T03:06:39.738Z,92.17
2023-09-08T03:09:06.138Z,92.16
2023-09-08T03:11:32.544Z,92.19
2023-09-08T03:13:58.980Z,92.12
2023-09-08T03:16:25.401Z,92.37
2023-09-08T03:18:51.904Z,92.08
2023-09-08T03:21:18.304Z,92.16
2023-09-08T03:23:45.440Z,91.92
2023-09-08T03:26:12.570Z,92.14
2023-09-08T03:28:42.094Z,92.23
2023-09-08T03:31:08.618Z,92.35
2023-09-08T03:33:35.200Z,92.45
2023-09-08T03:36:02.263Z,92.20
2023-09-08T03:38:28.671Z,92.10
2023-09-08T03:40:55.044Z,92.26
2023-09-08T03:43:21.524Z,92.13
2023-09-08T03:45:48.599Z,92.23
2023-09-08T03:48:15.514Z,92.19
2023-09-08T03:50:43.058Z,92.31
2023-09-08T03:53:09.604Z,92.15
2023-09-08T03:55:36.001Z,92.17
2023-09-08T03:58:02.360Z,92.15
2023-09-08T04:00:28.846Z,92.21
2023-09-08T04:02:55.358Z,92.16
2023-09-08T04:05:22.027Z,92.15
2023-09-08T04:07:49.014Z,92.22
2023-09-08T04:10:15.523Z,92.18
2023-09-08T04:12:42.162Z,91.83
2023-09-08T04:15:09.829Z,92.20
2023-09-08T04:17:37.219Z,92.14
2023-09-08T04:20:08.001Z,92.12
2023-09-08T04:22:34.731Z,92.40
2023-09-08T04:25:02.173Z,92.42
2023-09-08T04:27:28.601Z,92.34
2023-09-08T04:29:55.060Z,92.27
2023-09-08T04:32:21.615Z,92.30
2023-09-08T04:34:48.047Z,92.41
2023-09-08T04:37:15.188Z,92.16
2023-09-08T04:39:41.605Z,92.41
2023-09-08T04:42:10.363Z,92.27
2023-09-08T04:44:36.720Z,92.14
2023-09-08T04:47:03.328Z,92.05
2023-09-08T04:49:30.110Z,92.07
2023-09-08T04:51:56.669Z,92.03
2023-09-08T04:54:25.305Z,92.22
2023-09-08T04:56:51.900Z,92.21
2023-09-08T04:59:18.417Z,92.21
2023-09-08T05:01:44.978Z,91.89
2023-09-08T05:04:13.031Z,92.11
2023-09-08T05:06:39.522Z,92.16
2023-09-08T05:09:08.087Z,92.13
2023-09-08T05:11:34.691Z,92.13
2023-09-08T05:14:01.087Z,92.27
2023-09-08T05:16:37.920Z,91.89
2023-09-08T05:19:05.127Z,92.24
2023-09-08T05:21:32.473Z,92.15
2023-09-08T05:23:59.129Z,91.76
2023-09-08T05:26:25.581Z,91.15
2023-09-08T05:28:51.966Z,91.42
2023-09-08T05:31:18.366Z,90.96
2023-09-08T05:33:45.001Z,91.51
2023-09-08T05:36:13.469Z,91.44
2023-09-08T05:38:42.154Z,90.75
2023-09-08T05:41:08.510Z,90.31
2023-09-08T05:43:34.927Z,90.10
2023-09-08T05:46:01.515Z,90.72
2023-09-08T05:48:28.032Z,90.00
2023-09-08T05:50:54.477Z,90.32
2023-09-08T05:53:21.003Z,90.15
2023-09-08T05:55:47.517Z,89.48
2023-09-08T05:58:13.911Z,89.22
2023-09-08T06:00:41.621Z,89.29
2023-09-08T06:03:08.153Z,88.22
2023-09-08T06:05:34.721Z,88.29
2023-09-08T06:08:07.045Z,87.45
2023-09-08T06:10:34.461Z,86.92
2023-09-08T06:13:00.948Z,86.52
2023-09-08T06:15:27.414Z,85.84
2023-09-08T06:17:53.907Z,86.15
2023-09-08T06:20:20.394Z,86.19
2023-09-08T06:22:46.799Z,86.62
2023-09-08T06:25:13.714Z,86.95
2023-09-08T06:27:40.791Z,86.73
2023-09-08T06:30:07.832Z,87.41
2023-09-08T06:32:34.300Z,86.95
2023-09-08T06:35:00.729Z,86.96
2023-09-08T06:37:27.304Z,86.71
2023-09-08T06:39:55.821Z,86.76
2023-09-08T06:42:23.157Z,86.29
2023-09-08T06:44:49.546Z,86.51
2023-09-08T06:47:17.009Z,86.39
2023-09-08T06:49:43.413Z,85.11
2023-09-08T06:52:09.826Z,84.73
2023-09-08T06:54:36.513Z,83.89
2023-09-08T06:57:03.033Z,83.59
2023-09-08T06:59:29.418Z,81.52
2023-09-08T07:01:56.178Z,80.76
2023-09-08T07:04:22.880Z,80.61
2023-09-08T07:06:50.996Z,79.86
2023-09-08T07:09:17.529Z,78.56
2023-09-08T07:11:43.924Z,78.35
2023-09-08T07:14:10.329Z,78.27
2023-09-08T07:16:36.791Z,77.92
2023-09-08T07:19:03.322Z,78.28
2023-09-08T07:21:29.680Z,77.61
2023-09-08T07:23:56.061Z,76.97
2023-09-08T07:26:22.475Z,75.83
2023-09-08T07:28:50.018Z,74.50
2023-09-08T07:31:16.920Z,74.59
2023-09-08T07:33:43.506Z,71.72
2023-09-08T07:36:10.224Z,72.45
2023-09-08T07:38:36.876Z,71.28
2023-09-08T07:41:03.643Z,71.24
2023-09-08T07:43:30.440Z,70.17
2023-09-08T07:45:57.107Z,69.61
2023-09-08T07:48:23.541Z,67.66
2023-09-08T07:50:49.999Z,66.31
2023-09-08T07:53:16.392Z,64.92
2023-09-08T07:55:42.762Z,66.04
2023-09-08T07:58:09.391Z,64.56
2023-09-08T08:00:35.882Z,63.02
2023-09-08T08:03:05.183Z,63.38
2023-09-08T08:05:31.644Z,62.61
2023-09-08T08:07:58.098Z,62.56
2023-09-08T08:10:24.546Z,62.56
2023-09-08T08:12:51.026Z,62.54
2023-09-08T08:15:19.658Z,62.96
2023-09-08T08:17:46.272Z,63.29
2023-09-08T08:20:18.380Z,61.93
2023-09-08T08:22:48.530Z,61.55
2023-09-08T08:25:14.958Z,60.24
2023-09-08T08:27:41.836Z,60.41
2023-09-08T08:30:09.122Z,59.17
2023-09-08T08:32:35.941Z,59.43
2023-09-08T08:35:02.626Z,59.87
2023-09-08T08:37:29.295Z,58.49
2023-09-08T08:39:56.148Z,59.89
2023-09-08T08:42:25.574Z,58.97
2023-09-08T08:44:52.222Z,58.77
2023-09-08T08:47:21.132Z,58.09
2023-09-08T08:49:49.881Z,58.19
2023-09-08T08:52:16.661Z,58.29
2023-09-08T08:54:43.934Z,57.94
2023-09-08T08:57:12.104Z,57.58
2023-09-08T08:59:38.629Z,56.38
2023-09-08T09:02:06.238Z,54.72
2023-09-08T09:04:33.337Z,55.28
2023-09-08T09:07:00.419Z,54.77
2023-09-08T09:09:26.884Z,54.79
2023-09-08T09:11:53.377Z,54.49
2023-09-08T09:14:20.162Z,54.08
2023-09-08T09:16:48.692Z,53.00
2023-09-08T09:19:28.608Z,51.25
2023-09-08T09:21:56.519Z,49.78
2023-09-08T09:24:30.478Z,50.15
2023-09-08T09:26:57.521Z,48.25
2023-09-08T09:29:23.929Z,47.97
2023-09-08T09:32:09.127Z,47.31
2023-09-08T09:34:36.133Z,47.03
2023-09-08T09:37:04.948Z,46.93
2023-09-08T09:39:31.330Z,46.83
2023-09-08T09:41:58.953Z,45.79
2023-09-08T09:44:26.830Z,45.47
2023-09-08T09:46:54.459Z,43.68
2023-09-08T09:49:21.303Z,43.78
2023-09-08T09:51:50.280Z,43.39
2023-09-08T09:54:16.978Z,43.44
2023-09-08T09:56:46.631Z,42.56
2023-09-08T09:59:14.941Z,42.66
2023-09-08T10:01:43.488Z,43.49
2023-09-08T10:04:11.391Z,41.86
2023-09-08T10:06:41.443Z,42.92
2023-09-08T10:09:14.572Z,41.57
2023-09-08T10:11:49.798Z,40.94
2023-09-08T10:14:19.700Z,40.93
2023-09-08T10:16:50.603Z,40.47
2023-09-08T10:19:18.168Z,40.87
2023-09-08T10:21:47.978Z,40.56
2023-09-08T10:24:27.339Z,40.37
2023-09-08T10:27:07.433Z,39.82
2023-09-08T10:29:34.086Z,39.87
2023-09-08T10:32:01.040Z,39.22
2023-09-08T10:34:29.465Z,38.93
2023-09-08T10:36:55.900Z,39.21
2023-09-08T10:39:33.778Z,38.39
2023-09-08T10:42:19.514Z,37.97
2023-09-08T10:44:57.828Z,37.15
2023-09-08T10:47:32.452Z,37.54
2023-09-08T10:50:01.663Z,37.41
2023-09-08T10:52:28.579Z,37.59
2023-09-08T10:54:56.745Z,37.84
2023-09-08T10:57:25.526Z,37.28
2023-09-08T10:59:56.861Z,36.21
2023-09-08T11:02:39.735Z,36.75
2023-09-08T11:05:11.617Z,36.40
2023-09-08T11:07:38.817Z,36.06
2023-09-08T11:10:09.816Z,36.67
2023-09-08T11:12:36.405Z,35.05
2023-09-08T11:15:09.236Z,35.48
2023-09-08T11:17:37.385Z,35.36
2023-09-08T11:20:09.868Z,35.45
2023-09-08T11:22:38.209Z,34.51
2023-09-08T11:25:07.267Z,34.11
2023-09-08T11:27:33.881Z,33.62
2023-09-08T11:30:00.726Z,33.74
2023-09-08T11:32:33.410Z,32.65
2023-09-08T11:35:08.491Z,32.59
2023-09-08T11:37:39.039Z,32.22
2023-09-08T11:40:15.564Z,31.58
2023-09-08T11:42:46.712Z,30.35
2023-09-08T11:45:22.533Z,30.37
2023-09-08T11:47:50.512Z,30.15
2023-09-08T11:50:19.815Z,30.33
2023-09-08T11:52:48.397Z,30.10
2023-09-08T11:55:16.115Z,29.74
2023-09-08T11:57:45.157Z,29.48
2023-09-08T12:00:17.568Z,29.54
2023-09-08T12:02:45.204Z,29.58
2023-09-08T12:05:25.402Z,29.33
2023-09-08T12:07:53.122Z,29.03
2023-09-08T12:10:19.879Z,28.70
2023-09-08T12:12:49.273Z,28.86
2023-09-08T12:15:30.892Z,28.30
2023-09-08T12:17:57.366Z,28.39
2023-09-08T12:20:23.824Z,28.03
2023-09-08T12:22:51.368Z,28.05
2023-09-08T12:25:18.399Z,27.51
2023-09-08T12:27:46.970Z,27.49
2023-09-08T12:30:21.596Z,26.92
2023-09-08T12:32:50.184Z,26.89
2023-09-08T12:35:23.728Z,26.85
2023-09-08T12:38:04.016Z,26.05
2023-09-08T12:40:32.111Z,26.24
2023-09-08T12:43:03.927Z,26.42
2023-09-08T12:45:47.892Z,25.86
2023-09-08T12:48:14.344Z,25.99
2023-09-08T12:50:40.860Z,25.39
2023-09-08T12:53:07.596Z,25.63
2023-09-08T12:55:33.954Z,24.87
2023-09-08T12:58:00.495Z,25.07
2023-09-08T13:00:28.480Z,24.13
2023-09-08T13:02:56.064Z,24.47
2023-09-08T13:05:22.700Z,24.74
2023-09-08T13:07:49.201Z,24.75
2023-09-08T13:10:15.711Z,24.46
2023-09-08T13:12:42.674Z,24.70
2023-09-08T13:15:09.846Z,24.54
2023-09-08T13:17:36.340Z,25.03
2023-09-08T13:20:04.032Z,24.06
2023-09-08T13:22:30.776Z,24.11
2023-09-08T13:24:57.192Z,24.18
2023-09-08T13:27:23.566Z,24.77
2023-09-08T13:29:49.973Z,25.25
2023-09-08T13:32:17.035Z,23.80
2023-09-08T13:34:44.715Z,24.22
2023-09-08T13:37:11.445Z,23.98
2023-09-08T13:39:38.022Z,23.63
2023-09-08T13:42:04.669Z,22.24
2023-09-08T13:44:31.357Z,22.59
2023-09-08T13:46:58.161Z,24.11
2023-09-08T13:49:26.361Z,24.70
2023-09-08T13:51:57.201Z,25.07
2023-09-08T13:54:25.077Z,23.36
2023-09-08T13:57:01.848Z,22.94
2023-09-08T13:59:30.327Z,22.44
2023-09-08T14:02:33.472Z,22.51
2023-09-08T14:04:51.217Z,21.93
2023-09-08T14:09:54.931Z,21.98
2023-09-08T14:12:34.583Z,22.21
2023-09-08T14:15:03.408Z,22.57
2023-09-08T14:17:29.998Z,22.51
2023-09-08T14:19:56.684Z,23.02
2023-09-08T14:22:23.165Z,23.64
2023-09-08T14:24:49.638Z,23.04
2023-09-08T14:27:16.211Z,22.01
2023-09-08T14:29:42.637Z,23.45
2023-09-08T14:32:09.265Z,23.82
2023-09-08T14:34:35.750Z,23.36
2023-09-08T14:37:04.771Z,22.81
2023-09-08T14:39:32.029Z,24.78
2023-09-08T14:41:58.457Z,24.80
2023-09-08T14:44:24.886Z,24.26
2023-09-08T14:46:51.927Z,23.92
2023-09-08T14:49:18.710Z,23.41
2023-09-08T14:51:45.640Z,25.35
2023-09-08T14:54:12.197Z,28.14
2023-09-08T14:56:38.642Z,27.33
2023-09-08T14:59:05.091Z,29.56
2023-09-08T15:01:31.499Z,29.63
2023-09-08T15:03:58.054Z,29.57
2023-09-08T15:06:27.311Z,30.48
2023-09-08T15:08:54.908Z,30.24
2023-09-08T15:11:21.707Z,27.92
2023-09-08T15:13:48.129Z,27.96
2023-09-08T15:16:16.121Z,27.33
2023-09-08T15:18:42.880Z,25.71
2023-09-08T15:21:09.590Z,26.60
2023-09-08T15:23:36.787Z,27.26
2023-09-08T15:26:03.565Z,27.41
2023-09-08T15:28:30.431Z,28.92
2023-09-08T15:30:57.055Z,30.57
2023-09-08T15:33:24.818Z,31.20
2023-09-08T15:35:55.858Z,30.50
2023-09-08T15:38:23.775Z,30.32
2023-09-08T15:41:08.712Z,31.28
2023-09-08T15:43:37.406Z,31.38
2023-09-08T15:46:05.148Z,31.64
2023-09-08T15:48:31.610Z,33.78
2023-09-08T15:50:58.380Z,32.83
2023-09-08T15:53:25.177Z,33.53
2023-09-08T15:55:51.938Z,33.63
2023-09-08T15:58:18.664Z,32.59
2023-09-08T16:00:45.274Z,34.21
2023-09-08T16:03:12.046Z,33.92
2023-09-08T16:05:38.831Z,35.67
2023-09-08T16:08:05.868Z,35.58
2023-09-08T16:10:32.571Z,36.08
2023-09-08T16:13:01.715Z,36.32
2023-09-08T16:15:28.774Z,37.05
2023-09-08T16:17:55.532Z,37.15
2023-09-08T16:20:23.067Z,38.04
2023-09-08T16:22:50.159Z,38.65
2023-09-08T16:25:18.359Z,39.10
2023-09-08T16:27:48.074Z,39.76
2023-09-08T16:30:14.812Z,39.52
2023-09-08T16:32:41.938Z,40.03
2023-09-08T16:35:09.252Z,39.06
2023-09-08T16:37:35.814Z,40.52
2023-09-08T16:40:02.546Z,40.63
2023-09-08T16:42:29.203Z,40.59
2023-09-08T16:44:55.946Z,41.20
2023-09-08T16:47:24.359Z,40.06
2023-09-08T16:49:51.188Z,40.19
2023-09-08T16:52:17.718Z,40.96
2023-09-08T16:54:46.306Z,41.76
2023-09-08T16:57:13.236Z,42.44
2023-09-08T16:59:39.696Z,42.12
2023-09-08T17:02:06.278Z,42.61
2023-09-08T17:04:33.060Z,42.61
2023-09-08T17:06:59.995Z,42.39
2023-09-08T17:09:27.362Z,42.56
2023-09-08T17:11:53.755Z,43.21
2023-09-08T17:14:20.112Z,43.19
2023-09-08T17:16:46.520Z,43.78
2023-09-08T17:19:12.968Z,44.87
2023-09-08T17:21:39.350Z,45.08
2023-09-08T17:24:06.209Z,45.82
2023-09-08T17:26:32.574Z,46.52
2023-09-08T17:28:58.936Z,45.35
2023-09-08T17:31:25.349Z,45.89
2023-09-08T17:33:51.788Z,45.97
2023-09-08T17:36:18.322Z,44.91
2023-09-08T17:38:44.797Z,45.53
2023-09-08T17:41:11.258Z,46.29
2023-09-08T17:43:38.139Z,46.59
2023-09-08T17:46:05.471Z,46.27
2023-09-08T17:48:32.166Z,46.54
2023-09-08T17:50:58.549Z,47.54
2023-09-08T17:53:24.904Z,48.54
2023-09-08T17:55:51.306Z,48.87
2023-09-08T17:58:17.825Z,48.66
2023-09-08T18:00:45.143Z,48.60
2023-09-08T18:03:14.474Z,49.21
2023-09-08T18:05:42.725Z,49.07
2023-09-08T18:08:09.292Z,50.58
2023-09-08T18:10:35.772Z,50.32
2023-09-08T18:13:02.286Z,50.05
2023-09-08T18:15:28.742Z,51.09
2023-09-08T18:17:55.183Z,51.86
2023-09-08T18:20:21.666Z,51.84
2023-09-08T18:22:48.082Z,52.16
2023-09-08T18:25:14.572Z,52.91
2023-09-08T18:27:41.045Z,53.03
2023-09-08T18:30:07.913Z,53.32
2023-09-08T18:32:34.972Z,52.37
2023-09-08T18:35:01.340Z,52.70
2023-09-08T18:37:27.771Z,53.64
2023-09-08T18:39:54.650Z,54.59
2023-09-08T18:42:21.037Z,55.08
2023-09-08T18:44:47.462Z,55.86
2023-09-08T18:47:13.828Z,56.07
2023-09-08T18:49:40.432Z,56.61
2023-09-08T18:52:06.848Z,58.22
2023-09-08T18:54:33.312Z,58.35
2023-09-08T18:57:00.098Z,57.98
2023-09-08T18:59:26.552Z,59.24
2023-09-08T19:01:54.551Z,59.83
2023-09-08T19:04:21.002Z,60.77
2023-09-08T19:06:47.377Z,61.31
2023-09-08T19:09:13.853Z,61.39
2023-09-08T19:11:40.328Z,61.66
2023-09-08T19:14:06.823Z,62.18
2023-09-08T19:16:33.729Z,62.90
2023-09-08T19:19:00.264Z,63.28
2023-09-08T19:21:26.699Z,64.91
2023-09-08T19:23:53.161Z,64.90
2023-09-08T19:26:19.537Z,65.70
2023-09-08T19:28:45.991Z,66.69
2023-09-08T19:31:12.470Z,67.16
2023-09-08T19:33:39.158Z,68.08
2023-09-08T19:36:05.924Z,69.48
2023-09-08T19:38:33.046Z,70.71
2023-09-08T19:41:05.786Z,70.72
2023-09-08T19:43:32.524Z,70.29
2023-09-08T19:46:04.127Z,70.39
2023-09-08T19:48:30.951Z,70.29
2023-09-08T19:50:57.951Z,69.55
2023-09-08T19:53:24.534Z,71.10
2023-09-08T19:55:53.620Z,72.03
2023-09-08T19:58:20.949Z,72.74
2023-09-08T20:00:50.284Z,73.33
2023-09-08T20:03:16.934Z,74.14
2023-09-08T20:05:44.325Z,74.48
2023-09-08T20:08:11.159Z,74.41
2023-09-08T20:10:37.636Z,75.16
2023-09-08T20:13:04.290Z,75.52
2023-09-08T20:15:31.491Z,75.53
2023-09-08T20:17:57.947Z,75.98
2023-09-08T20:20:25.906Z,76.08
2023-09-08T20:22:52.588Z,76.43
2023-09-08T20:25:18.977Z,76.40
2023-09-08T20:27:47.970Z,76.36
2023-09-08T20:30:14.995Z,75.62
2023-09-08T20:32:41.504Z,75.88
2023-09-08T20:35:09.737Z,75.94
2023-09-08T20:37:36.265Z,75.80
2023-09-08T20:40:03.926Z,75.28
2023-09-08T20:42:30.340Z,75.29
2023-09-08T20:44:56.791Z,75.63
2023-09-08T20:47:23.138Z,75.69
2023-09-08T20:49:49.516Z,75.69
2023-09-08T20:52:15.969Z,75.78
2023-09-08T20:54:45.534Z,75.52
2023-09-08T20:57:12.317Z,76.31
2023-09-08T20:59:39.530Z,76.87
2023-09-08T21:02:08.991Z,76.91
2023-09-08T21:04:35.403Z,76.81
2023-09-08T21:07:01.911Z,77.74
2023-09-08T21:09:28.355Z,76.77
2023-09-08T21:11:54.927Z,77.27
2023-09-08T21:14:21.417Z,76.87
2023-09-08T21:16:47.749Z,77.56
2023-09-08T21:19:15.061Z,77.10
2023-09-08T21:21:41.635Z,77.56
2023-09-08T21:24:08.220Z,77.69
2023-09-08T21:26:34.709Z,77.98
2023-09-08T21:29:01.110Z,78.05
2023-09-08T21:31:27.525Z,77.65
2023-09-08T21:33:54.044Z,78.06
2023-09-08T21:36:20.536Z,77.82
2023-09-08T21:38:46.923Z,78.32
2023-09-08T21:41:13.565Z,77.60
2023-09-08T21:43:40.234Z,78.01
2023-09-08T21:46:08.391Z,79.30
2023-09-08T21:48:36.601Z,79.11
2023-09-08T21:51:04.015Z,78.63
2023-09-08T21:53:30.588Z,79.49
2023-09-08T21:55:57.100Z,77.79
2023-09-08T21:58:23.525Z,78.56
2023-09-08T22:00:50.036Z,78.45
2023-09-08T22:03:16.555Z,78.97
2023-09-08T22:05:43.456Z,79.00
2023-09-08T22:08:10.137Z,79.42
2023-09-08T22:10:36.599Z,78.95
2023-09-08T22:13:03.049Z,79.05
2023-09-08T22:15:29.460Z,77.24
2023-09-08T22:17:56.127Z,78.01
2023-09-08T22:20:23.508Z,76.81
2023-09-08T22:22:50.029Z,78.09
2023-09-08T22:25:16.410Z,77.90
2023-09-08T22:27:43.007Z,78.24
2023-09-08T22:30:09.828Z,78.47
2023-09-08T22:32:36.633Z,78.11
2023-09-08T22:35:05.110Z,78.06
2023-09-08T22:37:32.399Z,78.79
2023-09-08T22:39:58.752Z,77.93
2023-09-08T22:42:25.618Z,77.48
2023-09-08T22:44:52.077Z,77.62
2023-09-08T22:47:18.465Z,79.45
2023-09-08T22:49:57.433Z,79.04
2023-09-08T22:52:24.119Z,79.89
2023-09-08T22:54:50.562Z,79.79
2023-09-08T22:57:17.020Z,80.33
2023-09-08T22:59:44.137Z,80.88
2023-09-08T23:02:10.864Z,80.71
2023-09-08T23:04:37.274Z,80.55
2023-09-08T23:07:03.849Z,81.00
2023-09-08T23:09:30.281Z,82.02
2023-09-08T23:11:58.438Z,82.92
2023-09-08T23:14:24.880Z,83.32
2023-09-08T23:16:51.364Z,82.32
2023-09-08T23:19:18.288Z,80.54
2023-09-08T23:21:44.730Z,82.86
2023-09-08T23:24:11.174Z,82.81
2023-09-08T23:26:37.595Z,83.07
2023-09-08T23:29:03.981Z,82.49
2023-09-08T23:31:30.558Z,81.25
2023-09-08T23:33:56.952Z,82.32
2023-09-08T23:36:27.534Z,82.31
2023-09-08T23:38:53.903Z,82.25
2023-09-08T23:41:20.635Z,80.76
2023-09-08T23:43:47.044Z,81.20
2023-09-08T23:46:13.515Z,81.52
2023-09-08T23:48:39.909Z,81.98
2023-09-08T23:51:06.321Z,82.58
2023-09-08T23:53:34.166Z,81.96
2023-09-08T23:56:01.669Z,82.04
2023-09-08T23:58:28.053Z,81.56
